TZ-0082 weather

Lualanje Airport
Chunya, Mbeya Region, Tanzania

Public forecast

Using degrees Celsius for public forecast. Weather courtesy of forecast.io.

Closest aviation weather report (METAR) to Lualanje Airport

Report is more than 6 hours old.

Closest report is Mbeya Airport, 60.4 nm (111.8 km) S. Retrieved 2017/09/12 06:00 UTC (2 years ago):

HTMB 120600Z 00000KT 9999 FEW018 17/07 Q////

Closest aviation forecast (TAF) to Lualanje Airport

Forecast is more than 12 hours old.

Closest forecast is Songwe Airport, 62.4 nm (115.5 km) SSW. Retrieved 2020/02/14 12:00 UTC (4 days ago):

TAF HTGW 141100Z 1412/1512 33010KT 9999 RA SCT025 FEW026CB BKN080 BECMG 1415/1418 09010KT NSW SCT022 FEW024CB